Time;durP1;ratioP1;P1;durP2;ratioP2;P2;SDS_P1;SDS_P2;PMS_P1;PMS_P2;Temp;Humidity;BMP_temperature;BMP_pressure;BME280_temperature;BME280_humidity;BME280_pressure;Samples;Min_cycle;Max_cycle;Signal;HPM_P1;HPM_P2
2022/07/17 00:01:50;;;;;;;10.00;4.70;;;;;;;12.68;56.32;99468.14;106258;1273;111071;-65
2022/07/17 00:04:18;;;;;;;8.40;3.50;;;;;;;12.67;56.55;99468.39;106239;1274;96488;-65
2022/07/17 00:06:52;;;;;;;5.40;2.90;;;;;;;12.65;56.51;99473.17;106201;1274;108758;-66
2022/07/17 00:09:20;;;;;;;12.00;4.60;;;;;;;12.63;56.51;99471.21;106255;1274;96505;-67
2022/07/17 00:11:49;;;;;;;8.90;4.00;;;;;;;12.62;56.74;99472.57;106195;1274;94404;-67
2022/07/17 00:14:17;;;;;;;9.20;3.60;;;;;;;12.62;56.83;99472.35;106225;1274;109595;-65
2022/07/17 00:16:47;;;;;;;9.90;3.50;;;;;;;12.62;56.83;99474.83;106217;1273;94253;-67
2022/07/17 00:19:21;;;;;;;8.40;3.30;;;;;;;12.61;57.03;99475.64;106182;1273;108398;-66
2022/07/17 00:21:49;;;;;;;9.90;3.40;;;;;;;12.61;57.04;99474.39;106273;1274;96561;-66
2022/07/17 00:24:20;;;;;;;8.20;3.70;;;;;;;12.60;57.11;99475.33;106294;1274;94397;-66
2022/07/17 00:26:54;;;;;;;8.90;3.30;;;;;;;12.58;57.30;99476.00;106183;1274;110643;-66
2022/07/17 00:29:27;;;;;;;6.90;3.50;;;;;;;12.59;57.34;99473.98;106113;1274;96586;-66
2022/07/17 00:31:56;;;;;;;8.40;3.60;;;;;;;12.58;57.33;99475.68;106063;1274;108445;-65
2022/07/17 00:34:24;;;;;;;9.40;4.10;;;;;;;12.56;57.28;99474.73;106147;1273;96625;-65
2022/07/17 00:36:53;;;;;;;9.50;3.70;;;;;;;12.54;57.31;99472.76;106165;1274;96534;-66
2022/07/17 00:39:23;;;;;;;9.40;3.50;;;;;;;12.54;57.37;99474.77;106102;1274;110725;-66
2022/07/17 00:41:53;;;;;;;9.10;3.80;;;;;;;12.51;57.47;99476.34;106090;1273;96611;-66
2022/07/17 00:44:21;;;;;;;11.60;3.50;;;;;;;12.50;57.50;99477.00;106093;1273;108463;-68
2022/07/17 00:46:51;;;;;;;8.90;3.60;;;;;;;12.48;57.60;99477.64;106173;1274;96494;-66
2022/07/17 00:49:24;;;;;;;11.60;3.50;;;;;;;12.48;57.77;99478.70;106139;1274;94451;-66
2022/07/17 00:51:51;;;;;;;8.40;3.70;;;;;;;12.47;57.60;99479.85;106081;1274;110256;-67
2022/07/17 00:54:24;;;;;;;12.30;3.90;;;;;;;12.47;57.89;99475.92;106122;1274;96473;-66
2022/07/17 00:56:56;;;;;;;13.90;3.70;;;;;;;12.47;57.66;99476.62;106147;1273;108420;-67
2022/07/17 00:59:30;;;;;;;9.60;3.50;;;;;;;12.48;57.93;99481.54;106158;1274;96587;-67
2022/07/17 01:01:58;;;;;;;;;;;;;;;12.48;57.90;99482.23;106101;1274;95280;-66
2022/07/17 01:04:26;;;;;;;9.80;3.70;;;;;;;12.46;58.11;99476.15;106096;1273;110287;-67
2022/07/17 01:07:02;;;;;;;7.20;3.30;;;;;;;12.47;57.94;99472.89;106166;1274;96532;-66
2022/07/17 01:09:34;;;;;;;8.00;3.40;;;;;;;12.47;58.22;99473.25;106146;1274;108407;-70
2022/07/17 01:12:09;;;;;;;11.20;3.60;;;;;;;12.47;58.00;99471.83;106114;1273;96372;-68
2022/07/17 01:14:40;;;;;;;8.40;3.30;;;;;;;12.46;58.08;99473.00;106106;1273;96577;-66
2022/07/17 01:17:08;;;;;;;8.40;3.20;;;;;;;12.45;58.38;99472.39;106080;1274;110783;-66
2022/07/17 01:19:39;;;;;;;9.90;3.90;;;;;;;12.43;58.30;99477.09;106068;1274;96635;-67
2022/07/17 01:22:07;;;;;;;9.20;3.60;;;;;;;12.43;58.42;99472.69;106079;1274;108340;-67
2022/07/17 01:24:41;;;;;;;8.50;3.40;;;;;;;12.43;58.63;99465.92;106052;1274;96522;-65
2022/07/17 01:27:09;;;;;;;9.40;4.00;;;;;;;12.43;58.51;99469.84;105984;1274;96638;-66
2022/07/17 01:29:41;;;;;;;10.90;3.90;;;;;;;12.43;58.56;99473.58;105983;1274;110657;-66
2022/07/17 01:32:11;;;;;;;9.50;3.70;;;;;;;12.44;58.60;99471.55;106032;1274;96559;-65
2022/07/17 01:34:39;;;;;;;10.20;4.10;;;;;;;12.44;58.54;99470.64;105977;1274;108272;-66
2022/07/17 01:37:07;;;;;;;9.70;3.80;;;;;;;12.44;58.63;99470.27;105962;1275;96520;-66
2022/07/17 01:39:53;;;;;;;8.30;3.60;;;;;;;12.46;58.87;99468.54;105990;1274;96526;-66
2022/07/17 01:42:25;;;;;;;6.40;3.00;;;;;;;12.46;58.80;99462.84;106014;1274;110376;-66
2022/07/17 01:44:58;;;;;;;7.60;3.50;;;;;;;12.45;58.83;99465.98;106006;1274;96543;-66
2022/07/17 01:47:26;;;;;;;9.00;3.40;;;;;;;12.43;58.82;99468.55;106078;1274;107724;-66
2022/07/17 01:49:59;;;;;;;9.60;3.80;;;;;;;12.42;59.07;99471.15;105935;1274;96515;-68
2022/07/17 01:52:27;;;;;;;6.60;3.20;;;;;;;12.42;58.93;99475.77;105992;1275;96498;-70
2022/07/17 01:54:56;;;;;;;10.60;3.60;;;;;;;12.41;59.12;99474.82;105992;1274;110723;-68
2022/07/17 01:57:32;;;;;;;8.20;3.60;;;;;;;12.40;59.11;99476.66;105989;1275;96627;-66
2022/07/17 02:00:06;;;;;;;11.00;4.00;;;;;;;12.38;59.03;99475.70;105944;1274;107794;-68
2022/07/17 02:02:35;;;;;;;;;;;;;;;12.33;59.13;99477.31;106058;1274;96507;-66
2022/07/17 02:05:07;;;;;;;8.30;3.80;;;;;;;12.28;59.48;99480.35;106138;1275;97229;-68
2022/07/17 02:07:39;;;;;;;9.00;3.70;;;;;;;12.28;59.44;99475.94;106125;1274;111171;-65
2022/07/17 02:10:13;;;;;;;12.10;3.70;;;;;;;12.28;59.43;99478.94;106125;1274;96604;-66
2022/07/17 02:12:44;;;;;;;14.00;4.10;;;;;;;12.28;59.57;99477.13;106069;1274;106708;-66
2022/07/17 02:15:16;;;;;;;7.30;3.30;;;;;;;12.29;59.63;99474.77;106092;1274;94311;-65
2022/07/17 02:17:44;;;;;;;8.40;3.60;;;;;;;12.29;59.72;99476.19;106096;1274;96654;-67
2022/07/17 02:20:14;;;;;;;9.60;3.70;;;;;;;12.27;59.67;99473.65;106020;1274;110754;-66
2022/07/17 02:22:45;;;;;;;8.50;3.50;;;;;;;12.26;59.82;99477.86;105984;1273;96616;-65
2022/07/17 02:25:19;;;;;;;8.40;3.40;;;;;;;12.24;59.78;99472.09;106020;1274;108323;-66
2022/07/17 02:27:47;;;;;;;8.80;3.20;;;;;;;12.24;59.81;99471.58;105935;1275;96635;-66
2022/07/17 02:30:19;;;;;;;12.80;3.50;;;;;;;12.27;60.01;99474.77;106009;1274;94277;-68
2022/07/17 02:32:47;;;;;;;10.10;3.10;;;;;;;12.28;59.96;99472.52;106016;1275;110809;-67
2022/07/17 02:35:15;;;;;;;10.60;3.90;;;;;;;12.28;59.91;99474.31;106046;1274;94381;-66
2022/07/17 02:37:45;;;;;;;10.10;3.40;;;;;;;12.26;60.05;99474.82;106054;1274;108405;-67
2022/07/17 02:40:17;;;;;;;10.60;3.70;;;;;;;12.25;60.22;99478.45;106075;1275;96487;-66
2022/07/17 02:42:47;;;;;;;11.80;4.30;;;;;;;12.25;60.17;99480.92;106058;1274;94343;-66
2022/07/17 02:45:24;;;;;;;10.40;4.10;;;;;;;12.25;60.23;99476.48;106018;1274;110681;-66
2022/07/17 02:47:57;;;;;;;9.80;3.60;;;;;;;12.25;60.24;99475.63;105964;1277;96594;-66
2022/07/17 02:50:29;;;;;;;11.10;3.40;;;;;;;12.23;60.48;99479.45;105943;1277;108356;-67
2022/07/17 02:52:56;;;;;;;9.30;3.40;;;;;;;12.25;60.57;99484.84;105961;1277;96447;-68
2022/07/17 02:55:24;;;;;;;10.40;3.90;;;;;;;12.25;60.50;99480.04;106124;1274;95309;-69
2022/07/17 02:57:53;;;;;;;9.50;4.20;;;;;;;12.23;60.67;99478.97;105989;1275;110414;-70
2022/07/17 03:00:23;;;;;;;7.60;3.40;;;;;;;12.20;60.59;99484.83;106029;1274;96526;-67
2022/07/17 03:02:55;;;;;;;13.20;3.80;;;;;;;12.22;60.61;99482.61;105979;1274;108413;-68
2022/07/17 03:05:24;;;;;;;12.70;4.20;;;;;;;12.23;60.66;99486.23;105978;1275;97232;-66
2022/07/17 03:07:52;;;;;;;10.30;3.70;;;;;;;12.24;60.71;99483.34;106101;1274;96477;-68
2022/07/17 03:10:22;;;;;;;11.60;4.10;;;;;;;12.22;60.59;99482.77;106042;1274;110608;-66
2022/07/17 03:12:53;;;;;;;8.90;3.80;;;;;;;12.21;60.79;99482.83;106106;1274;96593;-67
2022/07/17 03:15:22;;;;;;;8.70;3.60;;;;;;;12.21;60.78;99489.21;105966;1274;108746;-66
2022/07/17 03:17:53;;;;;;;14.90;4.50;;;;;;;12.20;60.82;99484.68;106129;1274;96523;-67
2022/07/17 03:20:21;;;;;;;12.70;4.30;;;;;;;12.19;60.89;99487.21;106098;1274;95098;-65
2022/07/17 03:22:51;;;;;;;14.30;3.90;;;;;;;12.19;61.02;99489.16;106038;1274;110647;-65
2022/07/17 03:25:19;;;;;;;12.20;3.90;;;;;;;12.19;60.90;99485.48;106065;1274;97319;-66
2022/07/17 03:27:49;;;;;;;9.20;3.60;;;;;;;12.18;61.08;99488.34;106050;1274;108265;-65
2022/07/17 03:30:20;;;;;;;18.10;4.50;;;;;;;12.18;61.11;99490.00;105984;1274;96713;-67
2022/07/17 03:32:48;;;;;;;15.40;4.00;;;;;;;12.16;61.09;99493.27;106124;1274;96613;-67
2022/07/17 03:35:16;;;;;;;11.30;4.50;;;;;;;12.17;61.29;99497.48;106044;1274;110074;-66
2022/07/17 03:37:45;;;;;;;10.80;3.90;;;;;;;12.18;61.04;99498.70;106054;1274;95682;-67
2022/07/17 03:40:17;;;;;;;14.00;4.50;;;;;;;12.17;61.28;99498.91;106058;1274;108179;-66
2022/07/17 03:42:45;;;;;;;15.40;4.10;;;;;;;12.19;61.20;99501.67;106054;1274;96630;-67
2022/07/17 03:45:13;;;;;;;10.60;4.40;;;;;;;12.20;61.32;99504.73;106090;1274;94299;-65
2022/07/17 03:47:45;;;;;;;13.10;3.70;;;;;;;12.21;61.28;99502.73;103038;1274;4099662;-68
2022/07/17 03:50:13;;;;;;;12.00;3.90;;;;;;;12.22;61.42;99505.35;106053;1274;96638;-66
2022/07/17 03:52:42;;;;;;;16.80;6.40;;;;;;;12.22;61.44;99501.77;105948;1277;108292;-66
2022/07/17 03:55:16;;;;;;;13.60;4.10;;;;;;;12.22;61.44;99498.19;106046;1274;96392;-65
2022/07/17 03:57:44;;;;;;;13.20;3.60;;;;;;;12.25;61.44;99505.47;106047;1274;96553;-66
2022/07/17 04:00:18;;;;;;;10.80;3.70;;;;;;;12.27;61.39;99506.39;105960;1277;110752;-66
2022/07/17 04:02:46;;;;;;;10.70;3.60;;;;;;;12.29;61.45;99508.54;106038;1274;96399;-67
2022/07/17 04:05:14;;;;;;;11.20;4.20;;;;;;;12.31;61.58;99507.13;106108;1274;108281;-65
2022/07/17 04:07:48;;;;;;;15.80;3.70;;;;;;;12.33;61.58;99507.56;106044;1274;96590;-67
2022/07/17 04:10:16;;;;;;;11.10;3.60;;;;;;;12.36;61.59;99511.78;106035;1274;94309;-68
2022/07/17 04:12:44;;;;;;;12.80;4.00;;;;;;;12.39;61.79;99520.15;106036;1274;110663;-67
2022/07/17 04:15:48;;;;;;;10.90;3.30;;;;;;;12.41;61.65;99521.06;106122;1274;96499;-66
2022/07/17 04:18:02;;;;;;;11.40;3.70;;;;;;;12.45;61.77;99526.98;106020;1274;108404;-66
2022/07/17 04:20:29;;;;;;;11.70;3.30;;;;;;;12.47;61.65;99524.34;106028;1274;95039;-66
2022/07/17 04:23:01;;;;;;;12.70;4.30;;;;;;;12.49;61.83;99531.13;106015;1274;96510;-67
2022/07/17 04:25:29;;;;;;;9.30;4.00;;;;;;;12.50;61.74;99534.41;106111;1274;110721;-65
2022/07/17 04:27:57;;;;;;;7.50;3.50;;;;;;;12.53;61.89;99535.27;106118;1274;96537;-66
2022/07/17 04:30:24;;;;;;;12.70;3.70;;;;;;;12.57;61.95;99536.23;106083;1274;108155;-66
2022/07/17 04:32:53;;;;;;;11.00;3.80;;;;;;;12.59;61.91;99536.41;106085;1274;96776;-66
2022/07/17 04:35:25;;;;;;;11.50;3.50;;;;;;;12.62;62.03;99545.30;105978;1274;96628;-66
2022/07/17 04:37:53;;;;;;;14.90;4.10;;;;;;;12.65;61.92;99547.55;106021;1274;110718;-66
2022/07/17 04:40:25;;;;;;;15.50;3.80;;;;;;;12.71;62.02;99550.54;106061;1274;94238;-66
2022/07/17 04:42:57;;;;;;;8.10;3.20;;;;;;;12.72;62.22;99550.23;105972;1274;108417;-66
2022/07/17 04:45:29;;;;;;;13.80;4.00;;;;;;;12.75;62.13;99553.95;106023;1274;96619;-67
2022/07/17 04:47:58;;;;;;;12.00;4.10;;;;;;;12.77;62.18;99553.48;106049;1274;96535;-67
2022/07/17 04:50:26;;;;;;;13.70;3.80;;;;;;;12.78;62.17;99555.84;106107;1274;110712;-67
2022/07/17 04:52:56;;;;;;;8.20;3.30;;;;;;;12.80;62.35;99557.66;106042;1274;96539;-66
2022/07/17 04:55:26;;;;;;;11.00;3.60;;;;;;;12.85;62.23;99560.88;106086;1273;108369;-65
2022/07/17 04:57:55;;;;;;;10.90;3.40;;;;;;;12.89;62.36;99560.58;105960;1274;96513;-66
2022/07/17 05:00:23;;;;;;;15.40;3.70;;;;;;;12.91;62.26;99561.66;106035;1273;96623;-66
2022/07/17 05:02:55;;;;;;;11.10;3.50;;;;;;;12.95;62.35;99562.64;106026;1274;110620;-67
2022/07/17 05:05:25;;;;;;;7.50;2.90;;;;;;;12.99;62.34;99561.48;106014;1274;96541;-66
2022/07/17 05:07:56;;;;;;;10.80;3.30;;;;;;;13.01;62.36;99568.24;105998;1274;108330;-67
2022/07/17 05:10:25;;;;;;;9.80;3.30;;;;;;;13.03;62.43;99561.73;105975;1273;96415;-67
2022/07/17 05:12:55;;;;;;;10.10;3.40;;;;;;;13.07;62.49;99564.60;105904;1274;95210;-67
2022/07/17 05:15:29;;;;;;;9.00;3.30;;;;;;;13.10;62.44;99570.20;105984;1274;109680;-66
2022/07/17 05:18:09;;;;;;;11.90;3.40;;;;;;;13.14;62.61;99579.56;106045;1274;96635;-66
2022/07/17 05:20:40;;;;;;;10.30;3.00;;;;;;;13.20;62.58;99581.42;106001;1274;108158;-68
2022/07/17 05:23:09;;;;;;;10.10;3.10;;;;;;;13.24;62.41;99577.92;105920;1274;95077;-67
2022/07/17 05:25:37;;;;;;;13.50;3.10;;;;;;;13.28;62.53;99579.24;106008;1273;96545;-67
2022/07/17 05:28:05;;;;;;;8.90;2.80;;;;;;;13.33;62.55;99582.05;106011;1273;112833;-66
2022/07/17 05:30:35;;;;;;;13.50;3.20;;;;;;;13.38;62.49;99585.73;106002;1273;96504;-66
2022/07/17 05:33:04;;;;;;;8.20;3.00;;;;;;;13.47;62.69;99589.80;105954;1273;108378;-67
2022/07/17 05:35:32;;;;;;;7.90;2.80;;;;;;;13.52;62.54;99587.08;105903;1276;96787;-67
2022/07/17 05:38:01;;;;;;;12.40;2.90;;;;;;;13.58;62.62;99586.63;105988;1274;96653;-66
2022/07/17 05:40:29;;;;;;;9.90;2.90;;;;;;;13.62;62.51;99592.73;105976;1274;110236;-66
2022/07/17 05:42:58;;;;;;;10.40;3.00;;;;;;;13.68;62.56;99595.09;105910;1273;95767;-65
2022/07/17 05:45:27;;;;;;;8.10;3.30;;;;;;;13.74;62.67;99593.80;106015;1274;109154;-65
2022/07/17 05:47:55;;;;;;;7.50;2.80;;;;;;;13.80;62.52;99593.66;105905;1274;95199;-66
2022/07/17 05:50:23;;;;;;;8.50;3.20;;;;;;;13.86;62.70;99601.77;105987;1273;96523;-66
2022/07/17 05:52:56;;;;;;;8.50;3.00;;;;;;;13.89;62.60;99602.20;105974;1273;111415;-66
2022/07/17 05:55:28;;;;;;;13.30;2.80;;;;;;;13.92;62.59;99603.05;105982;1274;96547;-65
2022/07/17 05:57:57;;;;;;;9.60;2.80;;;;;;;13.96;62.64;99603.30;105949;1274;107518;-67
2022/07/17 06:00:24;;;;;;;10.50;2.80;;;;;;;14.02;62.63;99606.77;105961;1274;96603;-66
2022/07/17 06:02:52;;;;;;;12.50;3.00;;;;;;;14.03;62.72;99600.47;106019;1274;97358;-65
2022/07/17 06:05:20;;;;;;;8.70;3.00;;;;;;;14.06;62.75;99608.00;105919;1276;110172;-65
2022/07/17 06:07:48;;;;;;;5.70;2.60;;;;;;;14.14;62.78;99612.38;105959;1274;94985;-66
2022/07/17 06:10:16;;;;;;;7.70;2.50;;;;;;;14.22;62.73;99611.83;105960;1274;108040;-65
2022/07/17 06:12:45;;;;;;;10.90;3.20;;;;;;;14.28;62.67;99613.41;106005;1274;96580;-66
2022/07/17 06:15:17;;;;;;;6.80;2.20;;;;;;;14.36;62.67;99613.36;106071;1273;96625;-65
2022/07/17 06:17:48;;;;;;;6.20;2.30;;;;;;;14.45;62.68;99611.58;106083;1274;110776;-65
2022/07/17 06:20:18;;;;;;;6.80;2.70;;;;;;;14.53;62.76;99617.89;106087;1274;95243;-66
2022/07/17 06:22:47;;;;;;;8.20;2.80;;;;;;;14.60;62.65;99618.02;105999;1276;108355;-67
2022/07/17 06:25:15;;;;;;;10.10;2.70;;;;;;;14.65;62.56;99620.84;106005;1275;96619;-63
2022/07/17 06:27:47;;;;;;;10.10;3.70;;;;;;;14.70;62.54;99620.84;106084;1274;96622;-65
2022/07/17 06:30:19;;;;;;;8.80;3.20;;;;;;;14.81;62.61;99622.67;106094;1273;110458;-66
2022/07/17 06:32:47;;;;;;;12.80;3.40;;;;;;;14.99;62.63;99625.45;106043;1273;95016;-66
2022/07/17 06:35:15;;;;;;;9.80;2.90;;;;;;;15.17;62.39;99622.91;105969;1274;108472;-68
2022/07/17 06:37:44;;;;;;;5.20;2.10;;;;;;;15.36;62.43;99622.80;106000;1274;96648;-68
2022/07/17 06:40:12;;;;;;;7.10;2.50;;;;;;;15.40;62.50;99629.78;106049;1274;96418;-68
2022/07/17 06:42:40;;;;;;;10.10;2.60;;;;;;;15.39;62.59;99632.18;105981;1273;110842;-68
2022/07/17 06:45:11;;;;;;;10.40;3.20;;;;;;;15.38;62.75;99630.28;106033;1274;96546;-68
2022/07/17 06:47:39;;;;;;;6.30;2.30;;;;;;;15.49;62.76;99625.30;106046;1274;108148;-68
2022/07/17 06:50:12;;;;;;;9.00;2.20;;;;;;;15.58;62.79;99632.56;106000;1274;96490;-71
2022/07/17 06:52:40;;;;;;;16.00;3.00;;;;;;;15.60;62.55;99630.59;106054;1274;96612;-68
2022/07/17 06:55:16;;;;;;;;;;;;;;;15.69;62.51;99631.80;106110;1275;109641;-68
2022/07/17 06:57:44;;;;;;;7.00;2.20;;;;;;;15.71;62.50;99637.54;106004;1274;96578;-69
2022/07/17 07:00:17;;;;;;;16.00;4.70;;;;;;;15.71;62.41;99640.20;105999;1274;108336;-64
2022/07/17 07:02:45;;;;;;;12.10;3.20;;;;;;;15.74;62.47;99639.39;106086;1274;96386;-64
2022/07/17 07:05:14;;;;;;;4.90;2.00;;;;;;;16.21;61.73;99639.55;106079;1274;97222;-65
2022/07/17 07:07:42;;;;;;;8.70;2.20;;;;;;;17.32;60.78;99640.30;105990;1274;109355;-65
2022/07/17 07:10:15;;;;;;;10.10;2.20;;;;;;;18.55;60.36;99635.09;105971;1274;95188;-65
2022/07/17 07:12:43;;;;;;;8.10;2.50;;;;;;;19.78;60.49;99639.02;106056;1274;107211;-66
2022/07/17 07:15:11;;;;;;;6.70;1.80;;;;;;;19.91;61.22;99640.16;106015;1274;96677;-71
2022/07/17 07:17:44;;;;;;;8.70;2.10;;;;;;;19.65;61.14;99646.71;106038;1273;94369;-69
2022/07/17 07:20:12;;;;;;;5.30;2.40;;;;;;;20.31;60.69;99645.07;106108;1273;109986;-72
2022/07/17 07:22:40;;;;;;;7.30;2.20;;;;;;;21.00;60.52;99648.05;106130;1273;94257;-74
2022/07/17 07:25:10;;;;;;;4.50;1.60;;;;;;;20.72;60.94;99650.78;106067;1273;106051;-69
2022/07/17 07:27:39;;;;;;;5.40;1.80;;;;;;;20.25;61.53;99659.92;106058;1273;96549;-67
2022/07/17 07:30:11;;;;;;;7.20;1.80;;;;;;;20.00;61.47;99660.57;106141;1273;96601;-67
2022/07/17 07:32:39;;;;;;;6.90;1.80;;;;;;;19.93;61.51;99664.65;106059;1273;110725;-65
2022/07/17 07:35:12;;;;;;;7.20;1.40;;;;;;;20.01;61.25;99665.34;106128;1273;94264;-67
2022/07/17 07:37:40;;;;;;;6.10;1.70;;;;;;;19.99;60.78;99663.02;106029;1274;108802;-68
2022/07/17 07:40:13;;;;;;;7.80;1.80;;;;;;;20.05;60.89;99657.86;106138;1273;95008;-67
2022/07/17 07:42:43;;;;;;;7.50;1.70;;;;;;;20.19;60.62;99658.69;106121;1273;96947;-69
2022/07/17 07:45:11;;;;;;;5.90;1.50;;;;;;;20.09;60.22;99659.41;106086;1274;110069;-69
2022/07/17 07:47:47;;;;;;;5.30;1.60;;;;;;;20.32;60.03;99658.69;106021;1273;96498;-73
2022/07/17 07:50:17;;;;;;;2.90;1.30;;;;;;;21.10;59.74;99666.34;106033;1273;107629;-71
2022/07/17 07:52:45;;;;;;;5.50;1.40;;;;;;;22.18;58.33;99666.43;105988;1274;94756;-71
2022/07/17 07:55:16;;;;;;;5.60;1.90;;;;;;;22.46;58.63;99662.67;106048;1273;95404;-70
2022/07/17 07:58:08;;;;;;;6.40;1.90;;;;;;;23.45;58.04;99661.69;106094;1274;110198;-70
2022/07/17 08:00:38;;;;;;;9.50;1.70;;;;;;;24.61;57.48;99659.52;106018;1273;94451;-70
2022/07/17 08:03:07;;;;;;;7.90;1.60;;;;;;;25.59;57.20;99661.98;105966;1274;108320;-67
2022/07/17 08:05:36;;;;;;;3.90;1.60;;;;;;;26.18;56.94;99663.23;105998;1274;95097;-68
2022/07/17 08:08:06;;;;;;;6.60;1.50;;;;;;;26.80;56.77;99664.23;106053;1273;97126;-68
2022/07/17 08:10:35;;;;;;;3.40;1.30;;;;;;;27.54;57.32;99664.05;106025;1274;110627;-66
2022/07/17 08:13:03;;;;;;;5.00;1.60;;;;;;;27.15;57.45;99667.33;106004;1273;96380;-68
2022/07/17 08:15:31;;;;;;;5.20;1.70;;;;;;;26.48;58.06;99673.48;105942;1274;107629;-67
2022/07/17 08:18:01;;;;;;;6.00;1.80;;;;;;;25.67;57.04;99670.34;106100;1273;96501;-69
2022/07/17 08:20:31;;;;;;;9.40;1.90;;;;;;;25.12;55.97;99671.96;106005;1273;96698;-70
2022/07/17 08:23:00;;;;;;;7.40;1.80;;;;;;;25.38;54.90;99673.80;106095;1274;110064;-70
2022/07/17 08:25:34;;;;;;;2.80;1.30;;;;;;;25.94;54.57;99675.69;106163;1273;96605;-70
2022/07/17 08:28:07;;;;;;;8.60;1.80;;;;;;;26.14;55.47;99678.21;105984;1274;108407;-69
2022/07/17 08:30:36;;;;;;;6.00;1.60;;;;;;;26.02;54.81;99683.25;106076;1273;95208;-68
2022/07/17 08:33:09;;;;;;;7.70;1.60;;;;;;;25.50;54.50;99684.70;106107;1273;94277;-69
2022/07/17 08:35:37;;;;;;;6.50;1.70;;;;;;;25.70;53.38;99684.43;106777;1273;110519;-74
2022/07/17 08:38:07;;;;;;;4.20;2.00;;;;;;;26.01;52.72;99684.93;106119;1273;96636;-70
2022/07/17 08:40:39;;;;;;;6.30;2.30;;;;;;;25.39;53.18;99688.74;106083;1273;107681;-72
2022/07/17 08:43:11;;;;;;;8.60;2.40;;;;;;;25.34;52.82;99685.52;106129;1273;94747;-76
2022/07/17 08:45:40;;;;;;;5.90;2.90;;;;;;;25.33;52.34;99684.79;106195;1273;95302;-72
2022/07/17 08:48:19;;;;;;;7.60;2.00;;;;;;;25.66;52.31;99683.88;106069;1273;110085;-71
2022/07/17 08:50:51;;;;;;;4.00;1.50;;;;;;;26.07;51.71;99688.54;105963;1274;96972;-71
2022/07/17 08:53:19;;;;;;;8.70;2.60;;;;;;;26.40;51.21;99688.55;106042;1274;107704;-74
2022/07/17 08:55:49;;;;;;;4.90;2.00;;;;;;;26.78;50.70;99686.32;106038;1274;96513;-76
2022/07/17 08:58:17;;;;;;;4.00;1.90;;;;;;;27.27;50.88;99684.79;106044;1274;94416;-69
2022/07/17 09:00:46;;;;;;;2.30;1.50;;;;;;;27.73;50.64;99685.02;105995;1274;110346;-70
2022/07/17 09:03:17;;;;;;;5.00;1.60;;;;;;;27.73;50.65;99694.14;106116;1273;94362;-68
2022/07/17 09:05:48;;;;;;;4.80;1.70;;;;;;;27.94;49.83;99689.17;106118;1274;107793;-70
2022/07/17 09:08:23;;;;;;;5.50;1.90;;;;;;;27.53;49.29;99687.42;106030;1273;97678;-72
2022/07/17 09:10:54;;;;;;;5.80;1.50;;;;;;;27.09;48.72;99687.80;106048;1274;97305;-68
2022/07/17 09:13:33;;;;;;;2.10;1.60;;;;;;;27.11;48.74;99693.48;106052;1273;110565;-69
2022/07/17 09:16:12;;;;;;;3.20;1.70;;;;;;;27.37;48.67;99692.50;106161;1273;96518;-69
2022/07/17 09:18:57;;;;;;;4.00;1.60;;;;;;;27.90;48.51;99690.73;106063;1273;106611;-69
2022/07/17 09:21:29;;;;;;;4.60;1.70;;;;;;;28.36;48.10;99683.06;105928;1274;96637;-72
2022/07/17 09:24:07;;;;;;;4.20;2.10;;;;;;;28.74;47.98;99686.24;105985;1274;96612;-70
2022/07/17 09:26:43;;;;;;;3.80;1.10;;;;;;;28.90;47.87;99694.45;106079;1273;108190;-68
2022/07/17 09:29:15;;;;;;;3.70;1.40;;;;;;;28.25;47.45;99699.33;106110;1273;98186;-71
2022/07/17 09:31:43;;;;;;;;;;;;;;;28.15;46.77;99697.27;106013;1276;107799;-72
2022/07/17 09:34:19;;;;;;;4.00;1.30;;;;;;;27.92;46.26;99692.50;105985;1273;96541;-72
2022/07/17 09:37:00;;;;;;;5.20;1.50;;;;;;;27.91;46.37;99692.08;106036;1274;96586;-69
2022/07/17 09:39:38;;;;;;;7.40;1.40;;;;;;;28.00;46.18;99685.98;106016;1274;109829;-69
2022/07/17 09:42:06;;;;;;;1.60;1.40;;;;;;;27.53;46.00;99690.45;106164;1274;96696;-70
2022/07/17 09:44:34;;;;;;;3.90;1.40;;;;;;;27.22;45.82;99691.54;105963;1274;106698;-75
2022/07/17 09:47:09;;;;;;;3.00;1.20;;;;;;;26.72;45.62;99692.97;106029;1274;96513;-71
2022/07/17 09:49:41;;;;;;;2.60;1.40;;;;;;;26.30;45.22;99697.46;106061;1273;97263;-72
2022/07/17 09:52:17;;;;;;;1.90;0.90;;;;;;;26.17;45.22;99702.02;105964;1273;109924;-70
2022/07/17 09:54:51;;;;;;;3.00;1.30;;;;;;;26.26;44.66;99695.77;106066;1273;96993;-69
2022/07/17 09:57:44;;;;;;;4.30;1.20;;;;;;;26.17;44.10;99692.26;106030;1274;108309;-73
2022/07/17 10:00:16;;;;;;;4.40;1.40;;;;;;;26.00;44.14;99701.23;106031;1274;94943;-69
2022/07/17 10:02:54;;;;;;;2.60;1.00;;;;;;;25.60;44.05;99698.11;106198;1273;96583;-74
2022/07/17 10:05:27;;;;;;;4.00;1.20;;;;;;;25.51;43.77;99695.84;106008;1276;111010;-66
2022/07/17 10:07:55;;;;;;;6.70;1.30;;;;;;;25.20;43.63;99699.98;106046;1274;96618;-70
2022/07/17 10:10:25;;;;;;;2.40;1.30;;;;;;;24.67;43.27;99704.30;106109;1273;107125;-66
2022/07/17 10:12:55;;;;;;;3.10;1.20;;;;;;;24.23;43.24;99701.84;106072;1274;96548;-65
2022/07/17 10:15:27;;;;;;;3.90;1.10;;;;;;;23.95;43.27;99709.58;106105;1274;96721;-66
2022/07/17 10:18:10;;;;;;;3.10;1.30;;;;;;;23.73;42.90;99709.98;106012;1274;110365;-68
2022/07/17 10:20:41;;;;;;;1.80;1.10;;;;;;;23.28;42.73;99715.13;106029;1273;96953;-69
2022/07/17 10:23:17;;;;;;;1.90;1.20;;;;;;;22.89;42.37;99715.19;106094;1273;107854;-67
2022/07/17 10:25:45;;;;;;;4.20;1.50;;;;;;;22.58;42.36;99714.52;106045;1273;95171;-68
2022/07/17 10:28:16;;;;;;;2.00;1.20;;;;;;;22.45;42.28;99717.80;106167;1273;95249;-70
2022/07/17 10:30:46;;;;;;;5.50;1.30;;;;;;;22.32;42.51;99717.98;105910;1274;111131;-71
2022/07/17 10:33:21;;;;;;;3.30;1.30;;;;;;;22.19;42.22;99716.89;105934;1273;96600;-66
2022/07/17 10:35:49;;;;;;;3.40;1.60;;;;;;;22.13;42.32;99718.36;105874;1273;107340;-67
2022/07/17 10:38:17;;;;;;;3.70;1.10;;;;;;;22.07;42.08;99717.95;105913;1273;95287;-67
2022/07/17 10:41:00;;;;;;;5.50;1.50;;;;;;;21.96;41.97;99720.40;105943;1273;95007;-68
2022/07/17 10:43:46;;;;;;;3.90;1.60;;;;;;;21.84;42.06;99718.73;105932;1273;111135;-75
2022/07/17 10:46:14;;;;;;;5.80;1.70;;;;;;;21.81;41.92;99709.33;105974;1274;97564;-82
2022/07/17 10:48:51;;;;;;;3.00;1.50;;;;;;;21.75;42.00;99701.45;105993;1273;107971;-75
2022/07/17 10:51:23;;;;;;;3.50;1.10;;;;;;;21.71;41.88;99702.59;105989;1273;94650;-74
2022/07/17 10:53:58;;;;;;;4.10;1.10;;;;;;;21.69;41.97;99705.00;105902;1273;96635;-71
2022/07/17 10:56:27;;;;;;;3.80;1.60;;;;;;;21.67;41.96;99705.67;105927;1273;110043;-78
2022/07/17 10:59:03;;;;;;;57.10;47.30;;;;;;;21.69;41.91;99704.62;106524;1273;97145;-73
2022/07/17 11:01:31;;;;;;;14.20;8.20;;;;;;;21.72;41.83;99705.88;105951;1273;106461;-76
2022/07/17 11:04:04;;;;;;;8.00;4.00;;;;;;;21.71;41.95;99704.94;106042;1274;95748;-75
2022/07/17 11:06:41;;;;;;;4.80;2.60;;;;;;;21.68;41.91;99702.86;106178;1273;96632;-78
2022/07/17 11:09:12;;;;;;;4.70;2.40;;;;;;;21.63;41.82;99704.20;105966;1273;109922;-77
2022/07/17 11:11:49;;;;;;;5.20;1.90;;;;;;;21.58;41.82;99702.42;106079;1274;96634;-80
2022/07/17 11:14:23;;;;;;;4.10;1.50;;;;;;;21.54;41.73;99698.49;106001;1274;107769;-72
2022/07/17 11:16:59;;;;;;;4.10;1.50;;;;;;;21.44;41.71;99696.08;106008;1273;96599;-72
2022/07/17 11:19:30;;;;;;;4.80;1.70;;;;;;;21.34;41.48;99696.64;105918;1274;96524;-74
2022/07/17 11:22:04;;;;;;;2.80;1.60;;;;;;;21.31;41.33;99692.83;107890;1273;110511;-73
2022/07/17 11:24:40;;;;;;;3.30;1.50;;;;;;;21.26;41.77;99693.10;107452;1273;95540;-77
2022/07/17 11:27:29;;;;;;;3.00;1.60;;;;;;;21.34;41.78;99694.35;105867;1273;106399;-74
2022/07/17 11:29:59;;;;;;;1.90;1.00;;;;;;;21.32;41.37;99700.13;107929;1273;94772;-76
2022/07/17 11:32:35;;;;;;;5.00;2.00;;;;;;;21.23;41.59;99702.46;106520;1272;94596;-75
2022/07/17 11:35:14;;;;;;;2.70;1.50;;;;;;;21.26;41.54;99701.42;106071;1273;109839;-74
2022/07/17 11:38:02;;;;;;;3.10;1.70;;;;;;;21.33;41.52;99698.88;106064;1274;96575;-78